Time;durP1;ratioP1;P1;durP2;ratioP2;P2;SDS_P1;SDS_P2;PMS_P1;PMS_P2;Temp;Humidity;BMP_temperature;BMP_pressure;BME280_temperature;BME280_humidity;BME280_pressure;Samples;Min_cycle;Max_cycle;Signal;HPM_P1;HPM_P2
2022/09/29 00:00:10;;;;;;;;;;;;;;;19.60;68.57;98589.78;347728;28;1039;-75
2022/09/29 00:00:20;;;;;;;;;;;;;;;19.60;68.66;98592.44;345402;28;1358;-75
2022/09/29 00:00:31;;;;;;;;;;;;;;;19.62;68.72;98594.09;346407;28;877;-75
2022/09/29 00:00:41;;;;;;;;;;;;;;;19.62;68.41;98594.09;346134;28;1348;-74
2022/09/29 00:00:51;;;;;;;;;;;;;;;19.61;68.80;98587.97;347716;28;863;-74
2022/09/29 00:01:02;;;;;;;;;;;;;;;19.62;68.65;98594.09;346298;28;1197;-74
2022/09/29 00:01:12;;;;;;;;;;;;;;;19.62;68.51;98591.44;346416;28;837;-74
2022/09/29 00:01:22;;;;;;;;;;;;;;;19.60;68.42;98592.44;346410;28;1159;-74
2022/09/29 00:01:32;;;;;;;;;;;;;;;19.59;68.27;98590.75;346440;28;1218;-74
2022/09/29 00:01:42;;;;;;;;;;;;;;;19.58;68.56;98589.09;349618;28;1035;-73
2022/09/29 00:01:53;;;;;;;;;;;;;;;19.58;68.24;98597.03;351238;28;1459;-75
2022/09/29 00:02:03;;;;;;;;;;;;;;;19.60;68.49;98595.09;349784;28;1491;-75
2022/09/29 00:02:13;;;;;;;;;;;;;;;19.59;68.33;98596.06;348580;28;872;-75
2022/09/29 00:02:23;;;;;;;;;;;;;;;19.58;68.22;98586.44;349235;28;869;-74
2022/09/29 00:02:34;;;;;;;;;;;;;;;19.60;68.25;98597.75;350122;28;1223;-74
2022/09/29 00:02:44;;;;;;;;;;;;;;;19.60;68.11;98591.59;347754;28;864;-74
2022/09/29 00:02:54;;;;;;;;;;;;;;;19.59;68.24;98596.06;347613;28;1209;-74
2022/09/29 00:03:04;;;;;;;;;;;;;;;19.61;68.00;98593.25;346927;28;1384;-76
2022/09/29 00:03:14;;;;;;;;;;;;;;;19.61;68.10;98593.25;343675;28;1352;-75
2022/09/29 00:03:25;;;;;;;;;;;;;;;19.62;68.30;98591.44;345104;28;801;-75
2022/09/29 00:03:35;;;;;;;;;;;;;;;19.62;68.05;98592.28;345101;28;1284;-75
2022/09/29 00:03:45;;;;;;;;;;;;;;;19.63;68.03;98595.78;344827;28;1192;-76
2022/09/29 00:03:56;;;;;;;;;;;;;;;19.63;68.12;98593.13;344896;28;926;-76
2022/09/29 00:04:06;;;;;;;;;;;;;;;19.64;67.96;98594.78;342899;28;1292;-75
2022/09/29 00:04:16;;;;;;;;;;;;;;;19.64;68.09;98592.13;340190;29;782;-75
2022/09/29 00:04:27;;;;;;;;;;;;;;;19.64;68.11;98586.84;339477;29;1459;-75
2022/09/29 00:04:37;;;;;;;;;;;;;;;19.64;67.94;98600.09;338680;29;2029;-75
2022/09/29 00:04:47;;;;;;;;;;;;;;;19.64;67.82;98592.13;339450;28;1540;-75
2022/09/29 00:04:57;;;;;;;;;;;;;;;19.64;68.06;98590.31;342399;28;897;-75
2022/09/29 00:05:08;;;;;;;;;;;;;;;19.63;67.80;98590.47;340139;29;1907;-75
2022/09/29 00:05:18;;;;;;;;;;;;;;;19.62;68.02;98592.28;339640;29;966;-75
2022/09/29 00:05:29;;;;;;;;;;;;;;;19.62;67.76;98583.47;339604;29;1461;-75
2022/09/29 00:05:45;;;;;;;;;;;;;;;19.63;67.81;98590.47;337381;29;1428;-75
2022/09/29 00:05:55;;;;;;;;;;;;;;;19.63;67.70;98587.81;336946;29;1174;-75
2022/09/29 00:06:09;;;;;;;;;;;;;;;19.64;68.00;98592.13;337376;29;1346;-75
2022/09/29 00:06:20;;;;;;;;;;;;;;;19.63;68.06;98588.66;337899;29;1934;-75
2022/09/29 00:06:30;;;;;;;;;;;;;;;19.64;68.12;98589.47;334473;29;1248;-75
2022/09/29 00:06:40;;;;;;;;;;;;;;;19.63;68.10;98587.81;330984;29;1976;-75
2022/09/29 00:06:50;;;;;;;;;;;;;;;19.62;68.04;98583.47;332287;29;2104;-75
2022/09/29 00:07:01;;;;;;;;;;;;;;;19.62;67.76;98583.47;331997;29;1297;-75
2022/09/29 00:07:11;;;;;;;;;;;;;;;19.63;67.69;98585.16;327000;29;5011;-75
2022/09/29 00:07:21;;;;;;;;;;;;;;;19.58;67.96;98585.59;325734;30;5326;-75
2022/09/29 00:07:31;;;;;;;;;;;;;;;19.57;68.00;98584.75;325814;30;1190;-75
2022/09/29 00:07:42;;;;;;;;;;;;;;;19.56;68.08;98583.06;327984;30;1672;-75
2022/09/29 00:07:52;;;;;;;;;;;;;;;19.58;68.03;98581.13;328006;29;3128;-75
2022/09/29 00:08:02;;;;;;;;;;;;;;;19.57;68.18;98579.44;325440;29;2261;-75
2022/09/29 00:08:12;;;;;;;;;;;;;;;19.58;67.88;98583.78;325886;30;947;-75
2022/09/29 00:08:24;;;;;;;;;;;;;;;19.57;67.81;98584.75;326146;30;2031;-75
2022/09/29 00:08:34;;;;;;;;;;;;;;;19.58;67.91;98585.59;325391;30;2303;-75
2022/09/29 00:08:44;;;;;;;;;;;;;;;19.58;67.86;98585.59;325898;30;876;-75
2022/09/29 00:08:55;;;;;;;;;;;;;;;19.57;67.94;98582.09;322601;30;2397;-76
2022/09/29 00:09:05;;;;;;;;;;;;;;;19.56;67.73;98585.72;321994;30;2578;-75
2022/09/29 00:09:16;;;;;;;;;;;;;;;19.56;67.71;98580.44;323268;30;1063;-75
2022/09/29 00:09:26;;;;;;;;;;;;;;;19.59;67.43;98584.59;319761;30;2719;-75
2022/09/29 00:09:36;;;;;;;;;;;;;;;19.60;67.67;98584.47;319711;30;1701;-75
2022/09/29 00:09:47;;;;;;;;;;;;;;;19.61;67.73;98587.97;321010;30;1264;-75
2022/09/29 00:09:57;;;;;;;;;;;;;;;19.62;67.29;98588.78;318430;30;1586;-75
2022/09/29 00:10:07;;;;;;;;;;;;;;;19.61;67.24;98587.97;322065;30;2315;-75
2022/09/29 00:10:17;;;;;;;;;;;;;;;19.63;67.44;98588.66;322915;30;2648;-75
2022/09/29 00:10:28;;;;;;;;;;;;;;;19.64;67.45;98586.84;322174;30;1400;-75
2022/09/29 00:10:41;;;;;;;;;;;;;;;19.63;67.31;98585.16;318808;30;2792;-75
2022/09/29 00:10:51;;;;;;;;;;;;;;;19.64;66.96;98589.47;315088;31;3006;-75
2022/09/29 00:11:05;;;;;;;;;;;;;;;19.63;67.25;98593.13;315354;31;901;-76
2022/09/29 00:11:16;;;;;;;;;;;;;;;19.64;66.87;98590.31;313020;31;1271;-76
2022/09/29 00:11:26;;;;;;;;;;;;;;;19.65;67.41;98588.50;313665;31;3742;-76
2022/09/29 00:11:37;;;;;;;;;;;;;;;19.65;67.20;98593.81;313829;31;3490;-76
2022/09/29 00:11:47;;;;;;;;;;;;;;;19.65;67.14;98588.50;311787;31;1356;-76
2022/09/29 00:11:57;;;;;;;;;;;;;;;19.65;67.08;98586.69;306587;32;903;-76
2022/09/29 00:12:07;;;;;;;;;;;;;;;19.60;67.26;98589.78;308223;31;2242;-75
2022/09/29 00:12:17;;;;;;;;;;;;;;;19.60;67.52;98588.94;307941;31;3185;-75
2022/09/29 00:12:28;;;;;;;;;;;;;;;19.60;67.59;98583.63;306480;32;1348;-75
2022/09/29 00:12:38;;;;;;;;;;;;;;;19.58;67.38;98591.72;304901;32;3846;-75
2022/09/29 00:12:48;;;;;;;;;;;;;;;19.57;67.30;98590.06;304254;32;4015;-75
2022/09/29 00:12:58;;;;;;;;;;;;;;;19.58;67.50;98588.25;305371;32;1470;-75
2022/09/29 00:13:09;;;;;;;;;;;;;;;19.56;67.30;98585.72;301988;32;4162;-76
2022/09/29 00:13:19;;;;;;;;;;;;;;;19.56;67.54;98582.25;299982;32;4344;-76
2022/09/29 00:13:29;;;;;;;;;;;;;;;19.56;67.73;98588.38;301339;32;917;-76
2022/09/29 00:13:39;;;;;;;;;;;;;;;19.55;67.43;98581.41;301522;32;4839;-76
2022/09/29 00:13:50;;;;;;;;;;;;;;;19.54;67.44;98579.72;301847;32;4802;-76
2022/09/29 00:14:00;;;;;;;;;;;;;;;19.54;67.61;98582.38;305087;32;1296;-76
2022/09/29 00:14:10;;;;;;;;;;;;;;;19.54;67.74;98582.38;304728;32;3634;-76
2022/09/29 00:14:21;;;;;;;;;;;;;;;19.54;67.75;98586.84;300866;32;3262;-76
2022/09/29 00:14:31;;;;;;;;;;;;;;;19.54;67.80;98587.69;297168;33;1332;-76
2022/09/29 00:14:41;;;;;;;;;;;;;;;19.55;67.98;98583.22;303062;32;4478;-76
2022/09/29 00:14:51;;;;;;;;;;;;;;;19.52;67.92;98579.03;300602;32;5246;-76
2022/09/29 00:15:02;;;;;;;;;;;;;;;19.53;67.81;98580.72;298172;33;1091;-76
2022/09/29 00:15:12;;;;;;;;;;;;;;;19.55;68.08;98583.22;299316;32;5803;-75
2022/09/29 00:15:22;;;;;;;;;;;;;;;19.55;67.71;98583.22;298245;32;5875;-75
2022/09/29 00:15:33;;;;;;;;;;;;;;;19.55;67.93;98588.53;298529;32;5564;-75
2022/09/29 00:15:43;;;;;;;;;;;;;;;19.55;67.85;98583.22;302449;32;1382;-75
2022/09/29 00:15:57;;;;;;;;;;;;;;;19.56;68.08;98580.44;298243;33;6124;-76
2022/09/29 00:16:07;;;;;;;;;;;;;;;19.58;67.83;98583.78;296385;33;6330;-76
2022/09/29 00:16:17;;;;;;;;;;;;;;;19.58;68.07;98583.78;295896;33;4882;-76
2022/09/29 00:16:28;;;;;;;;;;;;;;;19.58;68.14;98578.47;292305;33;3795;-76
2022/09/29 00:16:38;;;;;;;;;;;;;;;19.57;67.79;98576.78;290128;33;5138;-76
2022/09/29 00:16:48;;;;;;;;;;;;;;;19.57;67.95;98578.59;289863;33;6531;-75
2022/09/29 00:16:58;;;;;;;;;;;;;;;19.57;67.75;98574.13;294728;33;3528;-75
2022/09/29 00:17:09;;;;;;;;;;;;;;;19.56;68.18;98579.59;292100;33;7669;-75
2022/09/29 00:17:19;;;;;;;;;;;;;;;19.55;68.04;98584.06;292172;33;8597;-75
2022/09/29 00:17:29;;;;;;;;;;;;;;;19.53;67.88;98571.91;291327;34;1452;-75
2022/09/29 00:17:40;;;;;;;;;;;;;;;19.46;68.05;98582.25;288226;34;7801;-75
2022/09/29 00:17:50;;;;;;;;;;;;;;;19.45;67.96;98582.41;287340;33;7948;-75
2022/09/29 00:18:00;;;;;;;;;;;;;;;19.43;68.11;98579.91;288512;34;872;-75
2022/09/29 00:18:10;;;;;;;;;;;;;;;19.42;68.17;98572.91;287883;34;8097;-76
2022/09/29 00:18:21;;;;;;;;;;;;;;;19.45;67.81;98577.09;284937;34;9176;-76
2022/09/29 00:18:31;;;;;;;;;;;;;;;19.45;67.88;98579.75;284720;34;1227;-76
2022/09/29 00:18:41;;;;;;;;;;;;;;;19.45;68.03;98580.59;283295;34;6859;-76
2022/09/29 00:18:54;;;;;;;;;;;;;;;19.45;67.96;98577.94;281861;34;7433;-76
2022/09/29 00:21:15;;;;;;;;;;;;;;;19.48;68.22;98582.97;2502423;27;19937;-75
2022/09/29 00:21:26;;;;;;;;;;;;;;;19.47;68.29;98585.75;356127;27;1217;-75
2022/09/29 00:21:36;;;;;;;;;;;;;;;19.46;68.24;98582.25;353274;28;1251;-75
2022/09/29 00:21:46;;;;;;;;;;;;;;;19.46;68.48;98579.59;353425;28;768;-75
2022/09/29 00:21:56;;;;;;;;;;;;;;;19.48;68.23;98580.31;351901;28;1214;-75
2022/09/29 00:22:06;;;;;;;;;;;;;;;19.49;68.33;98584.63;350582;28;1562;-75
2022/09/29 00:22:17;;;;;;;;;;;;;;;19.49;68.41;98579.31;350960;28;868;-76
2022/09/29 00:22:27;;;;;;;;;;;;;;;19.50;68.23;98580.97;351681;28;1221;-76
2022/09/29 00:22:37;;;;;;;;;;;;;;;19.49;68.38;98581.16;350513;28;837;-75
2022/09/29 00:22:50;;;;;;;;;;;;;;;19.48;68.28;98582.97;350567;28;1393;-75
2022/09/29 00:23:00;;;;;;;;;;;;;;;19.48;68.58;98582.97;348502;28;1178;-75
2022/09/29 00:23:11;;;;;;;;;;;;;;;19.47;68.52;98581.28;349065;28;816;-76
2022/09/29 00:23:24;;;;;;;;;;;;;;;19.47;68.53;98581.28;349331;28;1195;-75
2022/09/29 00:23:34;;;;;;;;;;;;;;;19.47;68.23;98581.28;351961;28;768;-75
2022/09/29 00:23:45;;;;;;;;;;;;;;;19.46;68.44;98574.31;350543;28;781;-76
2022/09/29 00:23:55;;;;;;;;;;;;;;;19.47;68.22;98580.44;349080;28;1188;-75
2022/09/29 00:24:05;;;;;;;;;;;;;;;19.46;68.45;98579.59;349221;28;765;-75
2022/09/29 00:24:15;;;;;;;;;;;;;;;19.46;68.31;98582.25;349130;28;1493;-75
2022/09/29 00:24:26;;;;;;;;;;;;;;;19.46;68.29;98573.47;352061;28;789;-75
2022/09/29 00:24:36;;;;;;;;;;;;;;;19.46;68.42;98579.59;350258;28;1398;-75
2022/09/29 00:24:46;;;;;;;;;;;;;;;19.47;68.29;98583.94;349003;28;1402;-76
2022/09/29 00:24:56;;;;;;;;;;;;;;;19.45;68.35;98580.59;350394;28;1275;-75
2022/09/29 00:25:07;;;;;;;;;;;;;;;19.46;68.52;98579.59;350351;28;943;-75
2022/09/29 00:25:17;;;;;;;;;;;;;;;19.45;68.22;98580.59;349080;28;1321;-75
2022/09/29 00:25:28;;;;;;;;;;;;;;;19.46;68.55;98574.31;349279;28;3525;-75
2022/09/29 00:25:38;;;;;;;;;;;;;;;19.45;68.23;98580.59;349094;28;5129;-75
2022/09/29 00:25:48;;;;;;;;;;;;;;;19.45;68.27;98572.63;351423;28;3327;-75
2022/09/29 00:26:08;;;;;;;;;;;;;;;19.44;68.34;98578.09;350109;28;1938;-75
2022/09/29 00:26:19;;;;;;;;;;;;;;;19.45;68.41;98580.59;348969;28;1900;-75
2022/09/29 00:26:30;;;;;;;;;;;;;;;19.46;68.18;98573.47;347701;28;1456;-75
2022/09/29 00:26:40;;;;;;;;;;;;;;;19.46;68.51;98579.59;346316;28;1213;-75
2022/09/29 00:26:50;;;;;;;;;;;;;;;19.46;68.26;98579.59;348392;28;1326;-76
2022/09/29 00:27:00;;;;;;;;;;;;;;;19.46;68.12;98573.47;346381;28;1342;-76
2022/09/29 00:27:12;;;;;;;;;;;;;;;19.47;68.20;98575.13;348715;28;1635;-75
2022/09/29 00:27:23;;;;;;;;;;;;;;;19.48;68.37;98575.00;348279;28;1301;-75
2022/09/29 00:27:33;;;;;;;;;;;;;;;19.47;68.37;98575.13;347825;28;841;-75
2022/09/29 00:27:43;;;;;;;;;;;;;;;19.47;68.03;98570.66;346359;28;1013;-77
2022/09/29 00:27:54;;;;;;;;;;;;;;;19.46;68.25;98571.66;345471;28;1344;-76
2022/09/29 00:28:04;;;;;;;;;;;;;;;19.46;68.44;98571.66;346538;28;1196;-76
2022/09/29 00:28:14;;;;;;;;;;;;;;;19.45;68.39;98572.63;347804;28;832;-75
2022/09/29 00:28:24;;;;;;;;;;;;;;;19.44;68.75;98576.25;346438;28;788;-75
2022/09/29 00:28:35;;;;;;;;;;;;;;;19.43;68.77;98571.09;347943;28;1186;-75
2022/09/29 00:28:51;;;;;;;;;;;;;;;19.43;68.63;98569.28;349081;28;1225;-75
2022/09/29 00:29:01;;;;;;;;;;;;;;;19.44;68.74;98570.94;346206;28;1231;-75
2022/09/29 00:29:11;;;;;;;;;;;;;;;19.45;68.28;98562.00;346611;28;1275;-75
2022/09/29 00:29:22;;;;;;;;;;;;;;;19.46;68.30;98566.34;344741;28;1042;-75
2022/09/29 00:29:32;;;;;;;;;;;;;;;19.48;68.56;98572.34;342248;28;2127;-75
2022/09/29 00:29:42;;;;;;;;;;;;;;;19.47;68.17;98565.38;343374;28;1379;-75
2022/09/29 00:29:53;;;;;;;;;;;;;;;19.48;68.12;98567.03;343310;28;1514;-75
2022/09/29 00:30:03;;;;;;;;;;;;;;;19.48;68.18;98567.03;344795;28;1979;-76
2022/09/29 00:30:13;;;;;;;;;;;;;;;19.48;68.01;98567.03;343475;28;1267;-75
2022/09/29 00:30:23;;;;;;;;;;;;;;;19.47;67.93;98565.38;342937;28;1319;-75
2022/09/29 00:30:34;;;;;;;;;;;;;;;19.48;68.17;98567.03;344117;28;1217;-75
2022/09/29 00:30:44;;;;;;;;;;;;;;;19.47;68.37;98562.72;342580;28;1131;-75
2022/09/29 00:30:54;;;;;;;;;;;;;;;19.46;68.23;98563.69;342181;28;1047;-75
2022/09/29 00:31:05;;;;;;;;;;;;;;;19.47;68.09;98560.06;341234;28;1585;-75
2022/09/29 00:31:15;;;;;;;;;;;;;;;19.46;68.11;98561.03;347463;28;1361;-75
2022/09/29 00:31:29;;;;;;;;;;;;;;;19.46;68.11;98566.34;346003;28;1658;-75
2022/09/29 00:31:39;;;;;;;;;;;;;;;19.46;68.29;98561.03;341811;28;1713;-75
2022/09/29 00:31:49;;;;;;;;;;;;;;;19.48;67.94;98567.03;339492;29;2095;-75
2022/09/29 00:31:59;;;;;;;;;;;;;;;19.47;68.04;98559.22;337080;29;1191;-75
2022/09/29 00:32:10;;;;;;;;;;;;;;;19.48;67.88;98561.72;335483;29;2304;-75
2022/09/29 00:32:20;;;;;;;;;;;;;;;19.49;67.92;98567.88;332651;29;1601;-75
2022/09/29 00:32:30;;;;;;;;;;;;;;;19.49;67.75;98568.72;329416;29;1305;-75
2022/09/29 00:32:40;;;;;;;;;;;;;;;19.49;68.10;98563.41;331874;29;1264;-75
2022/09/29 00:32:50;;;;;;;;;;;;;;;19.49;67.96;98563.41;333595;29;1152;-75
2022/09/29 00:33:01;;;;;;;;;;;;;;;19.48;67.94;98567.03;337619;29;1298;-75
2022/09/29 00:33:11;;;;;;;;;;;;;;;19.49;67.92;98558.09;338072;29;1925;-75
2022/09/29 00:33:21;;;;;;;;;;;;;;;19.49;67.89;98574.00;334133;29;2867;-75
2022/09/29 00:33:32;;;;;;;;;;;;;;;19.49;67.68;98563.41;332082;29;772;-75
2022/09/29 00:33:42;;;;;;;;;;;;;;;19.49;67.75;98559.91;332341;29;2234;-75
2022/09/29 00:33:52;;;;;;;;;;;;;;;19.48;67.69;98561.72;331989;29;2279;-75
2022/09/29 00:34:02;;;;;;;;;;;;;;;19.49;67.71;98560.75;329451;30;1226;-75
2022/09/29 00:34:13;;;;;;;;;;;;;;;19.50;67.57;98564.22;328759;30;2741;-75
2022/09/29 00:34:23;;;;;;;;;;;;;;;19.50;67.37;98566.84;328412;30;2803;-75
2022/09/29 00:34:33;;;;;;;;;;;;;;;19.49;67.28;98559.91;329522;30;880;-75
2022/09/29 00:34:43;;;;;;;;;;;;;;;19.49;67.40;98560.75;330168;29;4452;-75
2022/09/29 00:34:54;;;;;;;;;;;;;;;19.46;67.54;98563.69;330089;29;2867;-75
2022/09/29 00:35:07;;;;;;;;;;;;;;;19.43;67.15;98561.31;330054;29;2883;-75
2022/09/29 00:35:17;;;;;;;;;;;;;;;19.42;67.28;98562.31;330543;29;2316;-75
2022/09/29 00:35:27;;;;;;;;;;;;;;;19.42;67.33;98562.31;326653;30;3222;-75
2022/09/29 00:35:37;;;;;;;;;;;;;;;19.42;66.97;98551.69;325609;30;3027;-75
2022/09/29 00:35:57;;;;;;;;;;;;;;;19.42;67.04;98562.31;328305;30;800;-75
2022/09/29 00:36:11;;;;;;;;;;;;;;;19.42;67.45;98564.97;322925;30;3211;-75
2022/09/29 00:36:21;;;;;;;;;;;;;;;19.42;67.28;98551.69;322374;30;3640;-75
2022/09/29 00:36:32;;;;;;;;;;;;;;;19.42;67.42;98562.31;323839;30;1508;-75
2022/09/29 00:36:42;;;;;;;;;;;;;;;19.42;67.31;98554.34;321670;30;3354;-75
2022/09/29 00:36:52;;;;;;;;;;;;;;;19.42;67.35;98572.91;322212;30;2564;-75
2022/09/29 00:37:02;;;;;;;;;;;;;;;19.43;67.44;98558.66;321079;30;1319;-75
2022/09/29 00:37:13;;;;;;;;;;;;;;;19.45;67.03;98561.19;322278;30;2174;-75
2022/09/29 00:37:23;;;;;;;;;;;;;;;19.46;67.07;98558.38;322956;30;3000;-75
2022/09/29 00:37:33;;;;;;;;;;;;;;;19.45;66.56;98558.53;321036;30;1249;-75
2022/09/29 00:37:44;;;;;;;;;;;;;;;19.44;66.71;98559.50;317633;31;830;-75
2022/09/29 00:37:54;;;;;;;;;;;;;;;19.45;66.92;98559.34;316691;31;4132;-75
2022/09/29 00:38:04;;;;;;;;;;;;;;;19.46;66.12;98560.19;314277;31;4197;-75
2022/09/29 00:38:14;;;;;;;;;;;;;;;19.46;66.92;98558.38;311099;31;1130;-75
2022/09/29 00:38:25;;;;;;;;;;;;;;;19.45;66.79;98559.34;311290;31;4157;-75
2022/09/29 00:38:35;;;;;;;;;;;;;;;19.42;66.69;98561.47;312680;31;4637;-75
2022/09/29 00:38:46;;;;;;;;;;;;;;;19.36;66.80;98557.56;310943;31;749;-75
2022/09/29 00:38:56;;;;;;;;;;;;;;;19.31;66.55;98564.28;313441;31;4668;-75
2022/09/29 00:39:07;;;;;;;;;;;;;;;19.27;67.03;98563.72;311297;31;3287;-75
2022/09/29 00:39:17;;;;;;;;;;;;;;;19.27;66.80;98563.72;309754;31;887;-75
2022/09/29 00:39:27;;;;;;;;;;;;;;;19.24;67.13;98561.38;313149;31;3248;-75
2022/09/29 00:39:37;;;;;;;;;;;;;;;19.21;67.58;98564.31;312003;31;4340;-75
2022/09/29 00:39:48;;;;;;;;;;;;;;;19.20;67.67;98563.47;312541;31;1268;-75
2022/09/29 00:39:58;;;;;;;;;;;;;;;19.21;67.86;98559.00;310505;31;5218;-75
2022/09/29 00:40:08;;;;;;;;;;;;;;;19.21;67.59;98562.47;309031;31;6307;-75
2022/09/29 00:40:18;;;;;;;;;;;;;;;19.22;67.01;98565.97;310955;31;951;-75
2022/09/29 00:40:29;;;;;;;;;;;;;;;19.22;67.10;98561.50;308645;32;829;-75
2022/09/29 00:40:39;;;;;;;;;;;;;;;19.25;67.26;98563.03;305023;32;5911;-75
2022/09/29 00:40:49;;;;;;;;;;;;;;;19.26;66.94;98559.41;302396;32;6218;-75
2022/09/29 00:41:00;;;;;;;;;;;;;;;19.28;66.59;98565.41;302286;32;888;-75
2022/09/29 00:41:12;;;;;;;;;;;;;;;19.29;66.58;98561.78;304562;32;6450;-75
2022/09/29 00:41:23;;;;;;;;;;;;;;;19.32;66.47;98561.47;303347;32;4810;-75
2022/09/29 00:41:34;;;;;;;;;;;;;;;19.32;66.56;98561.47;299168;32;1257;-75
2022/09/29 00:41:44;;;;;;;;;;;;;;;19.35;66.29;98563.00;298835;33;1388;-75
2022/09/29 00:41:56;;;;;;;;;;;;;;;19.34;66.39;98567.50;298784;32;6249;-75
2022/09/29 00:42:08;;;;;;;;;;;;;;;19.36;66.58;98568.19;296870;32;7414;-75
2022/09/29 00:42:18;;;;;;;;;;;;;;;19.38;66.55;98560.06;294996;33;879;-75
2022/09/29 00:42:31;;;;;;;;;;;;;;;19.39;66.63;98567.91;291118;33;3804;-75
2022/09/29 00:42:41;;;;;;;;;;;;;;;19.38;66.72;98566.22;288111;33;8426;-75
2022/09/29 00:42:51;;;;;;;;;;;;;;;19.38;66.64;98568.03;285439;34;8630;-75
2022/09/29 00:43:02;;;;;;;;;;;;;;;19.38;66.29;98563.56;286965;34;1127;-75
2022/09/29 00:43:12;;;;;;;;;;;;;;;19.39;66.38;98572.38;286544;34;7955;-75
2022/09/29 00:43:41;;;;;;;;;;;;;;;19.39;66.47;98564.41;284583;34;8453;-75
2022/09/29 00:46:11;;;;;;;;;;;;;;;19.33;66.51;98560.50;2493818;27;20362;-75
2022/09/29 00:46:30;;;;;;;;;;;;;;;19.33;66.79;98565.81;353104;27;1341;-75
2022/09/29 00:46:51;;;;;;;;;;;;;;;19.29;66.57;98564.44;353170;28;1336;-75
2022/09/29 00:47:01;;;;;;;;;;;;;;;19.28;66.73;98565.41;351923;28;1252;-75
2022/09/29 00:47:13;;;;;;;;;;;;;;;19.28;66.72;98562.75;350232;28;1527;-75
2022/09/29 00:47:24;;;;;;;;;;;;;;;19.28;66.62;98562.75;348931;28;1149;-75
2022/09/29 00:47:34;;;;;;;;;;;;;;;19.28;66.67;98565.41;349638;28;1259;-75
2022/09/29 00:47:46;;;;;;;;;;;;;;;19.27;66.81;98559.25;350411;28;1273;-75
2022/09/29 00:48:02;;;;;;;;;;;;;;;19.27;67.00;98566.38;351892;28;808;-75
2022/09/29 00:48:13;;;;;;;;;;;;;;;19.27;66.93;98563.72;350553;28;872;-75
2022/09/29 00:48:26;;;;;;;;;;;;;;;19.27;66.91;98561.06;347461;28;1247;-75
2022/09/29 00:48:36;;;;;;;;;;;;;;;19.28;66.66;98566.25;349000;28;1366;-75
2022/09/29 00:48:46;;;;;;;;;;;;;;;19.27;66.77;98563.72;347752;28;1300;-76
2022/09/29 00:49:02;;;;;;;;;;;;;;;19.26;66.96;98562.06;344811;28;1540;-75
2022/09/29 00:49:26;;;;;;;;;;;;;;;19.27;66.90;98559.25;343984;28;806;-75
2022/09/29 00:49:42;;;;;;;;;;;;;;;19.28;66.85;98560.94;345365;28;756;-75
2022/09/29 00:49:54;;;;;;;;;;;;;;;19.30;66.66;98563.44;346273;28;869;-75
2022/09/29 00:50:25;;;;;;;;;;;;;;;19.31;66.71;98575.72;348161;28;1202;-75
2022/09/29 00:50:37;;;;;;;;;;;;;;;19.32;66.96;98563.31;347035;28;1059;-76
2022/09/29 00:50:50;;;;;;;;;;;;;;;19.29;67.18;98569.72;346206;28;1235;-75
2022/09/29 00:51:00;;;;;;;;;;;;;;;19.27;67.03;98563.72;346249;28;1355;-75
2022/09/29 00:51:11;;;;;;;;;;;;;;;19.26;67.23;98564.72;346440;28;859;-75
2022/09/29 00:51:21;;;;;;;;;;;;;;;19.26;67.19;98568.19;347622;28;1284;-75
2022/09/29 00:51:32;;;;;;;;;;;;;;;19.26;67.39;98567.38;347630;28;1218;-75
2022/09/29 00:51:44;;;;;;;;;;;;;;;19.26;67.04;98568.19;349157;28;1304;-75
2022/09/29 00:52:02;;;;;;;;;;;;;;;19.27;67.08;98566.38;347636;28;1676;-75
2022/09/29 00:52:14;;;;;;;;;;;;;;;19.27;66.72;98563.72;345807;28;1434;-75
2022/09/29 00:52:25;;;;;;;;;;;;;;;19.28;66.81;98571.53;346646;28;1230;-75
2022/09/29 00:52:40;;;;;;;;;;;;;;;19.28;66.98;98565.41;346384;28;1369;-75
2022/09/29 00:52:52;;;;;;;;;;;;;;;19.29;66.72;98564.44;346941;28;1331;-75
2022/09/29 00:53:03;;;;;;;;;;;;;;;19.28;67.00;98560.09;345977;28;3136;-75
2022/09/29 00:53:13;;;;;;;;;;;;;;;19.27;66.78;98569.03;345063;28;4585;-75
2022/09/29 00:53:23;;;;;;;;;;;;;;;19.26;66.79;98570.84;346012;28;3415;-75
2022/09/29 00:53:33;;;;;;;;;;;;;;;19.26;66.62;98564.72;345458;28;1796;-76
2022/09/29 00:53:44;;;;;;;;;;;;;;;19.26;66.76;98570.00;344069;28;2977;-76
2022/09/29 00:53:54;;;;;;;;;;;;;;;19.26;66.74;98568.19;343337;28;1279;-76
2022/09/29 00:54:04;;;;;;;;;;;;;;;19.26;66.71;98575.31;343804;28;1300;-76
2022/09/29 00:54:15;;;;;;;;;;;;;;;19.26;66.78;98568.19;341500;28;1563;-76
2022/09/29 00:54:27;;;;;;;;;;;;;;;19.25;66.88;98566.53;336548;29;1350;-76
2022/09/29 00:54:41;;;;;;;;;;;;;;;19.25;66.75;98560.38;341070;28;1248;-76
2022/09/29 00:54:55;;;;;;;;;;;;;;;19.23;66.81;98565.84;342080;28;1475;-76
2022/09/29 00:55:14;;;;;;;;;;;;;;;19.21;67.15;98561.66;339986;29;1977;-75
2022/09/29 00:55:32;;;;;;;;;;;;;;;19.18;67.17;98565.41;339500;29;1704;-75
2022/09/29 00:55:44;;;;;;;;;;;;;;;19.12;67.23;98565.16;342100;28;852;-75
2022/09/29 00:55:58;;;;;;;;;;;;;;;19.09;67.51;98560.97;338491;29;1076;-75
2022/09/29 00:56:10;;;;;;;;;;;;;;;19.09;67.57;98566.28;339099;29;1423;-75
2022/09/29 00:56:20;;;;;;;;;;;;;;;19.10;67.47;98561.81;340069;28;1934;-75
2022/09/29 00:56:30;;;;;;;;;;;;;;;19.07;67.58;98562.91;339198;29;2217;-75
2022/09/29 00:56:40;;;;;;;;;;;;;;;19.07;67.39;98562.09;338298;29;1300;-75
2022/09/29 00:56:51;;;;;;;;;;;;;;;19.07;67.60;98565.56;336608;29;1821;-75
2022/09/29 00:57:01;;;;;;;;;;;;;;;19.04;67.67;98562.41;334393;29;1905;-75
2022/09/29 00:57:11;;;;;;;;;;;;;;;19.04;67.57;98567.69;330738;29;1663;-75
2022/09/29 00:57:23;;;;;;;;;;;;;;;19.03;67.59;98564.22;331644;29;1604;-75
2022/09/29 00:57:38;;;;;;;;;;;;;;;19.04;67.67;98573.00;332005;29;799;-75
2022/09/29 00:58:00;;;;;;;;;;;;;;;19.06;67.58;98565.75;335765;29;1290;-75
2022/09/29 00:58:18;;;;;;;;;;;;;;;19.09;67.63;98578.69;335138;29;2296;-75
2022/09/29 00:58:30;;;;;;;;;;;;;;;19.09;67.60;98570.75;332991;29;1276;-75
2022/09/29 00:58:44;;;;;;;;;;;;;;;19.07;67.65;98570.03;329545;29;1229;-75
2022/09/29 00:58:55;;;;;;;;;;;;;;;19.09;67.42;98576.03;324365;30;2620;-75
2022/09/29 00:59:06;;;;;;;;;;;;;;;19.10;67.57;98577.72;323053;30;2488;-75
2022/09/29 00:59:18;;;;;;;;;;;;;;;19.10;67.58;98567.94;325011;29;2555;-75
2022/09/29 00:59:34;;;;;;;;;;;;;;;19.10;67.63;98575.91;331751;29;1287;-75
2022/09/29 00:59:52;;;;;;;;;;;;;;;19.12;67.38;98575.75;328430;30;1225;-75
2022/09/29 01:00:07;;;;;;;;;;;;;;;19.13;67.51;98574.78;326303;30;2154;-75
2022/09/29 01:00:17;;;;;;;;;;;;;;;19.12;67.45;98575.75;325417;30;2631;-75
2022/09/29 01:00:28;;;;;;;;;;;;;;;19.11;67.25;98574.91;329467;30;1379;-75
2022/09/29 01:00:38;;;;;;;;;;;;;;;19.11;67.35;98574.91;325021;30;2954;-75
2022/09/29 01:00:48;;;;;;;;;;;;;;;19.12;67.35;98575.75;323077;30;3418;-75
2022/09/29 01:00:58;;;;;;;;;;;;;;;19.14;67.49;98573.81;323435;30;711;-75
2022/09/29 01:01:08;;;;;;;;;;;;;;;19.13;67.33;98572.97;327025;30;3369;-75
2022/09/29 01:01:22;;;;;;;;;;;;;;;19.13;67.15;98572.97;326953;30;3304;-75
2022/09/29 01:01:32;;;;;;;;;;;;;;;19.13;67.31;98574.78;328138;30;3308;-76
2022/09/29 01:01:42;;;;;;;;;;;;;;;19.12;67.24;98570.47;328243;30;1304;-76
2022/09/29 01:01:53;;;;;;;;;;;;;;;19.12;67.19;98570.47;325741;30;2442;-76
2022/09/29 01:02:04;;;;;;;;;;;;;;;19.13;67.22;98574.78;322633;30;2486;-76
2022/09/29 01:02:15;;;;;;;;;;;;;;;19.13;67.13;98569.47;318667;30;3799;-76
2022/09/29 01:02:26;;;;;;;;;;;;;;;19.14;67.34;98571.16;319686;30;4676;-75
2022/09/29 01:02:40;;;;;;;;;;;;;;;19.14;67.23;98568.50;320643;30;3549;-75
2022/09/29 01:02:56;;;;;;;;;;;;;;;19.14;67.19;98568.50;319191;30;4212;-75
2022/09/29 01:03:07;;;;;;;;;;;;;;;19.15;67.03;98570.16;315299;31;4409;-75
2022/09/29 01:03:19;;;;;;;;;;;;;;;19.12;67.48;98563.34;314029;31;4328;-75
2022/09/29 01:03:36;;;;;;;;;;;;;;;19.12;67.64;98567.81;315097;31;1299;-77
2022/09/29 01:03:46;;;;;;;;;;;;;;;19.09;67.66;98570.75;312377;31;4688;-76
2022/09/29 01:03:58;;;;;;;;;;;;;;;19.09;67.66;98570.75;310847;31;1346;-76
2022/09/29 01:04:09;;;;;;;;;;;;;;;19.09;67.51;98570.75;308883;31;3566;-76
2022/09/29 01:04:21;;;;;;;;;;;;;;;19.04;68.02;98573.84;309921;31;3266;-76
2022/09/29 01:04:31;;;;;;;;;;;;;;;19.03;67.70;98571.34;305983;31;4015;-76
2022/09/29 01:04:41;;;;;;;;;;;;;;;19.03;67.79;98579.28;307708;32;1281;-76
2022/09/29 01:04:52;;;;;;;;;;;;;;;19.03;67.85;98568.69;308157;31;5087;-76